Star Flyer — 9HA2512 — position and weather

sailwx.info

Track history (hours):
 
Tides and Currents Weather Stations Pressure Air Temp Water Temp Dewpoint Dewpoint Depression Visibility Wind Speed Wind Dir Waves Ship Positions

Star Flyer

Last reported at 2019-Nov-09 00:07 UTC. Time now 2019-Dec-12 08:59 UTC.
Position N 27°52' W 015°22'.
Warning: this ship's position is 33 days out of date.

Length 112 m; draft 5.8 m.

Type: Ship. MMSI: 248785000.

Date/timePositionNaut miles runAvg speedWind from/ knotsBaromVisibWave heightAir tempDewpointWater temp
2019-Nov-09 00:07N 27°52' W 015°22'610.5
2019-Nov-08 23:30N 27°58' W 015°20'11 7.5
2019-Nov-08 22:00N 28°08' W 015°25'0 0.0
2019-Nov-08 21:24N 28°08' W 015°25'0 0.0
2019-Nov-08 21:00N 28°08' W 015°25'0 0.0
2019-Nov-08 20:30N 28°08' W 015°25'0 0.0
2019-Nov-08 17:30N 28°08' W 015°25'0 0.0
2019-Nov-08 16:30N 28°08' W 015°25'0 0.0
2019-Nov-08 11:00N 28°08' W 015°25'0 0.0
2019-Nov-08 09:24N 28°08' W 015°25'0 0.0
2019-Nov-08 08:54N 28°08' W 015°25'0 0.0
2019-Nov-08 08:29N 28°08' W 015°25'8 5.5
2019-Nov-08 07:00N 28°07' W 015°16'55 5.7
2019-Nov-07 21:22N 28°04' W 014°14'66 2.2
2019-Nov-06 15:09N 28°58' W 013°32'0 0.0
2019-Nov-06 14:57N 28°58' W 013°32'0 0.0
2019-Nov-06 14:15N 28°58' W 013°32'0 0.0
2019-Nov-06 13:39N 28°58' W 013°32'1 0.2
2019-Nov-06 08:31N 28°57' W 013°31'  
Track history (hours):
 
Tides and Currents Weather Stations Pressure Air Temp Water Temp Dewpoint Dewpoint Depression Visibility Wind Speed Wind Dir Waves Ship Positions

Star Flyer

Last reported at 2019-Nov-09 00:07 UTC. Time now 2019-Dec-12 08:59 UTC.
Position N 27°52' W 015°22'.
Warning: this ship's position is 33 days out of date.

Length 112 m; draft 5.8 m.

Type: Ship. MMSI: 248785000.

Date/timePositionNaut miles runAvg speedWind from/ knotsBaromVisibWave heightAir tempDewpointWater temp
2019-Nov-09 00:07N 27°52' W 015°22'610.5
2019-Nov-08 23:30N 27°58' W 015°20'11 7.5
2019-Nov-08 22:00N 28°08' W 015°25'0 0.0
2019-Nov-08 21:24N 28°08' W 015°25'0 0.0
2019-Nov-08 21:00N 28°08' W 015°25'0 0.0
2019-Nov-08 20:30N 28°08' W 015°25'0 0.0
2019-Nov-08 17:30N 28°08' W 015°25'0 0.0
2019-Nov-08 16:30N 28°08' W 015°25'0 0.0
2019-Nov-08 11:00N 28°08' W 015°25'0 0.0
2019-Nov-08 09:24N 28°08' W 015°25'0 0.0
2019-Nov-08 08:54N 28°08' W 015°25'0 0.0
2019-Nov-08 08:29N 28°08' W 015°25'8 5.5
2019-Nov-08 07:00N 28°07' W 015°16'55 5.7
2019-Nov-07 21:22N 28°04' W 014°14'66 2.2
2019-Nov-06 15:09N 28°58' W 013°32'0 0.0
2019-Nov-06 14:57N 28°58' W 013°32'0 0.0
2019-Nov-06 14:15N 28°58' W 013°32'0 0.0
2019-Nov-06 13:39N 28°58' W 013°32'1 0.2
2019-Nov-06 08:31N 28°57' W 013°31'  

Dump ship's entire track history